sensor_id;sensor_type;location;lat;lon;timestamp;pressure;altitude;pressure_sealevel;temperature;humidity
20987;BME280;10652;50.306;8.570;2024-01-07T00:03:44;97558.28;;;2.46;100.00
20987;BME280;10652;50.306;8.570;2024-01-07T00:07:46;97559.25;;;2.42;100.00
20987;BME280;10652;50.306;8.570;2024-01-07T00:11:50;97556.47;;;2.50;100.00
20987;BME280;10652;50.306;8.570;2024-01-07T00:15:52;97557.19;;;2.57;100.00
20987;BME280;10652;50.306;8.570;2024-01-07T00:19:55;97561.19;;;2.70;100.00
20987;BME280;10652;50.306;8.570;2024-01-07T00:23:57;97560.34;;;2.69;100.00
20987;BME280;10652;50.306;8.570;2024-01-07T00:28:01;97570.47;;;2.80;100.00
20987;BME280;10652;50.306;8.570;2024-01-07T00:32:03;97577.41;;;2.79;100.00
20987;BME280;10652;50.306;8.570;2024-01-07T00:36:07;97575.88;;;2.71;100.00
20987;BME280;10652;50.306;8.570;2024-01-07T00:40:09;97570.78;;;2.68;100.00
20987;BME280;10652;50.306;8.570;2024-01-07T00:44:13;97576.00;;;2.65;100.00
20987;BME280;10652;50.306;8.570;2024-01-07T00:48:15;97576.22;;;2.56;100.00
20987;BME280;10652;50.306;8.570;2024-01-07T00:52:18;97587.44;;;2.58;100.00
20987;BME280;10652;50.306;8.570;2024-01-07T00:56:20;97588.22;;;2.60;100.00
20987;BME280;10652;50.306;8.570;2024-01-07T01:00:22;97593.31;;;2.64;100.00
20987;BME280;10652;50.306;8.570;2024-01-07T01:04:24;97593.38;;;2.61;100.00
20987;BME280;10652;50.306;8.570;2024-01-07T01:08:26;97594.34;;;2.57;100.00
20987;BME280;10652;50.306;8.570;2024-01-07T01:12:29;97596.16;;;2.54;100.00
20987;BME280;10652;50.306;8.570;2024-01-07T01:16:31;97604.75;;;2.56;100.00
20987;BME280;10652;50.306;8.570;2024-01-07T01:20:33;97606.38;;;2.60;100.00
20987;BME280;10652;50.306;8.570;2024-01-07T01:24:35;97613.34;;;2.58;100.00
20987;BME280;10652;50.306;8.570;2024-01-07T01:28:37;97610.75;;;2.58;100.00
20987;BME280;10652;50.306;8.570;2024-01-07T01:32:39;97614.13;;;2.61;100.00
20987;BME280;10652;50.306;8.570;2024-01-07T01:36:41;97619.34;;;2.60;100.00
20987;BME280;10652;50.306;8.570;2024-01-07T01:40:44;97620.25;;;2.59;100.00
20987;BME280;10652;50.306;8.570;2024-01-07T01:44:46;97623.66;;;2.61;100.00
20987;BME280;10652;50.306;8.570;2024-01-07T01:48:48;97617.69;;;2.56;100.00
20987;BME280;10652;50.306;8.570;2024-01-07T01:52:51;97629.00;;;2.53;100.00
20987;BME280;10652;50.306;8.570;2024-01-07T01:56:54;97623.72;;;2.58;100.00
20987;BME280;10652;50.306;8.570;2024-01-07T02:00:56;97627.28;;;2.54;100.00
20987;BME280;10652;50.306;8.570;2024-01-07T02:05:01;97625.53;;;2.54;100.00
20987;BME280;10652;50.306;8.570;2024-01-07T02:09:04;97632.69;;;2.43;100.00
20987;BME280;10652;50.306;8.570;2024-01-07T02:13:06;97638.78;;;2.40;100.00
20987;BME280;10652;50.306;8.570;2024-01-07T02:17:09;97635.44;;;2.35;100.00
20987;BME280;10652;50.306;8.570;2024-01-07T02:21:13;97631.91;;;2.39;100.00
20987;BME280;10652;50.306;8.570;2024-01-07T02:25:15;97631.94;;;2.36;100.00
20987;BME280;10652;50.306;8.570;2024-01-07T02:29:17;97637.94;;;2.40;100.00
20987;BME280;10652;50.306;8.570;2024-01-07T02:33:19;97642.19;;;2.42;100.00
20987;BME280;10652;50.306;8.570;2024-01-07T02:37:22;97638.91;;;2.34;100.00
20987;BME280;10652;50.306;8.570;2024-01-07T02:41:24;97640.63;;;2.35;100.00
20987;BME280;10652;50.306;8.570;2024-01-07T02:45:27;97641.50;;;2.34;100.00
20987;BME280;10652;50.306;8.570;2024-01-07T02:49:29;97640.72;;;2.31;100.00
20987;BME280;10652;50.306;8.570;2024-01-07T02:53:32;97642.47;;;2.30;100.00
20987;BME280;10652;50.306;8.570;2024-01-07T02:57:34;97641.59;;;2.30;100.00
20987;BME280;10652;50.306;8.570;2024-01-07T03:01:36;97645.84;;;2.32;100.00
20987;BME280;10652;50.306;8.570;2024-01-07T03:05:42;97643.41;;;2.26;100.00
20987;BME280;10652;50.306;8.570;2024-01-07T03:09:44;97649.59;;;2.19;100.00
20987;BME280;10652;50.306;8.570;2024-01-07T03:13:49;97650.56;;;2.14;100.00
20987;BME280;10652;50.306;8.570;2024-01-07T03:17:51;97642.91;;;2.08;100.00
20987;BME280;10652;50.306;8.570;2024-01-07T03:21:53;97643.72;;;2.10;100.00
20987;BME280;10652;50.306;8.570;2024-01-07T03:25:58;97646.41;;;2.05;100.00
20987;BME280;10652;50.306;8.570;2024-01-07T03:30:00;97657.50;;;2.13;100.00
20987;BME280;10652;50.306;8.570;2024-01-07T03:34:02;97653.22;;;2.09;100.00
20987;BME280;10652;50.306;8.570;2024-01-07T03:38:04;97658.72;;;1.94;100.00
20987;BME280;10652;50.306;8.570;2024-01-07T03:42:06;97654.53;;;1.87;100.00
20987;BME280;10652;50.306;8.570;2024-01-07T03:46:13;97655.25;;;1.95;100.00
20987;BME280;10652;50.306;8.570;2024-01-07T03:50:16;97656.09;;;1.95;100.00
20987;BME280;10652;50.306;8.570;2024-01-07T03:54:18;97662.13;;;1.96;100.00
20987;BME280;10652;50.306;8.570;2024-01-07T03:58:20;97665.56;;;1.98;100.00
20987;BME280;10652;50.306;8.570;2024-01-07T04:02:22;97669.91;;;1.96;100.00
20987;BME280;10652;50.306;8.570;2024-01-07T04:06:24;97669.13;;;1.91;100.00
20987;BME280;10652;50.306;8.570;2024-01-07T04:10:26;97664.19;;;1.79;100.00
20987;BME280;10652;50.306;8.570;2024-01-07T04:14:28;97676.19;;;1.83;100.00
20987;BME280;10652;50.306;8.570;2024-01-07T04:18:31;97678.75;;;1.86;100.00
20987;BME280;10652;50.306;8.570;2024-01-07T04:22:33;97674.66;;;1.73;100.00
20987;BME280;10652;50.306;8.570;2024-01-07T04:26:35;97682.41;;;1.74;100.00
20987;BME280;10652;50.306;8.570;2024-01-07T04:30:38;97685.75;;;1.81;100.00
20987;BME280;10652;50.306;8.570;2024-01-07T04:34:40;97690.78;;;1.87;100.00
20987;BME280;10652;50.306;8.570;2024-01-07T04:38:42;97688.25;;;1.85;100.00
20987;BME280;10652;50.306;8.570;2024-01-07T04:42:44;97692.50;;;1.89;100.00
20987;BME280;10652;50.306;8.570;2024-01-07T04:46:47;97698.38;;;1.96;100.00
20987;BME280;10652;50.306;8.570;2024-01-07T04:50:49;97706.94;;;2.01;100.00
20987;BME280;10652;50.306;8.570;2024-01-07T04:54:55;97705.34;;;1.94;100.00
20987;BME280;10652;50.306;8.570;2024-01-07T04:58:58;97713.91;;;1.97;100.00
20987;BME280;10652;50.306;8.570;2024-01-07T05:03:00;97711.25;;;2.00;100.00
20987;BME280;10652;50.306;8.570;2024-01-07T05:07:02;97726.09;;;1.91;100.00
20987;BME280;10652;50.306;8.570;2024-01-07T05:11:05;97729.63;;;1.87;100.00
20987;BME280;10652;50.306;8.570;2024-01-07T05:15:07;97732.38;;;1.78;100.00
20987;BME280;10652;50.306;8.570;2024-01-07T05:19:09;97738.63;;;1.68;100.00
20987;BME280;10652;50.306;8.570;2024-01-07T05:23:12;97740.47;;;1.59;100.00
20987;BME280;10652;50.306;8.570;2024-01-07T05:27:14;97744.69;;;1.64;100.00
20987;BME280;10652;50.306;8.570;2024-01-07T05:31:19;97748.97;;;1.68;100.00
20987;BME280;10652;50.306;8.570;2024-01-07T05:35:21;97754.19;;;1.65;100.00
20987;BME280;10652;50.306;8.570;2024-01-07T05:39:23;97753.88;;;1.83;100.00
20987;BME280;10652;50.306;8.570;2024-01-07T05:43:25;97762.72;;;1.70;100.00
20987;BME280;10652;50.306;8.570;2024-01-07T05:47:27;97773.16;;;1.65;100.00
20987;BME280;10652;50.306;8.570;2024-01-07T05:51:29;97773.31;;;1.57;100.00
20987;BME280;10652;50.306;8.570;2024-01-07T05:55:31;97782.88;;;1.52;100.00
20987;BME280;10652;50.306;8.570;2024-01-07T05:59:33;97777.72;;;1.51;100.00
20987;BME280;10652;50.306;8.570;2024-01-07T06:03:35;97804.59;;;1.42;100.00
20987;BME280;10652;50.306;8.570;2024-01-07T06:07:38;97797.81;;;1.32;100.00
20987;BME280;10652;50.306;8.570;2024-01-07T06:11:40;97811.81;;;1.21;100.00
20987;BME280;10652;50.306;8.570;2024-01-07T06:15:42;97821.41;;;1.09;100.00
20987;BME280;10652;50.306;8.570;2024-01-07T06:19:44;97836.19;;;1.00;100.00
20987;BME280;10652;50.306;8.570;2024-01-07T06:23:47;97827.75;;;0.89;100.00
20987;BME280;10652;50.306;8.570;2024-01-07T06:27:49;97843.25;;;0.89;100.00
20987;BME280;10652;50.306;8.570;2024-01-07T06:31:51;97849.50;;;0.71;100.00
20987;BME280;10652;50.306;8.570;2024-01-07T06:35:53;97852.19;;;0.60;100.00
20987;BME280;10652;50.306;8.570;2024-01-07T06:39:56;97867.75;;;0.57;100.00
20987;BME280;10652;50.306;8.570;2024-01-07T06:44:00;97853.94;;;0.58;100.00
20987;BME280;10652;50.306;8.570;2024-01-07T06:48:02;97857.44;;;0.54;100.00
20987;BME280;10652;50.306;8.570;2024-01-07T06:52:05;97874.59;;;0.61;100.00
20987;BME280;10652;50.306;8.570;2024-01-07T06:56:07;97895.31;;;0.55;100.00
20987;BME280;10652;50.306;8.570;2024-01-07T07:00:09;97888.44;;;0.54;100.00
20987;BME280;10652;50.306;8.570;2024-01-07T07:04:12;97893.63;;;0.54;100.00
20987;BME280;10652;50.306;8.570;2024-01-07T07:08:15;97900.47;;;0.55;100.00
20987;BME280;10652;50.306;8.570;2024-01-07T07:12:17;97913.41;;;0.57;100.00
20987;BME280;10652;50.306;8.570;2024-01-07T07:16:20;97907.22;;;0.68;100.00
20987;BME280;10652;50.306;8.570;2024-01-07T07:20:22;97915.06;;;0.62;100.00
20987;BME280;10652;50.306;8.570;2024-01-07T07:24:24;97922.81;;;0.62;100.00
20987;BME280;10652;50.306;8.570;2024-01-07T07:28:26;97927.94;;;0.65;100.00
20987;BME280;10652;50.306;8.570;2024-01-07T07:32:28;97929.75;;;0.57;100.00
20987;BME280;10652;50.306;8.570;2024-01-07T07:36:30;97933.16;;;0.62;100.00
20987;BME280;10652;50.306;8.570;2024-01-07T07:40:32;97953.88;;;0.58;100.00
20987;BME280;10652;50.306;8.570;2024-01-07T07:44:34;97959.09;;;0.50;100.00
20987;BME280;10652;50.306;8.570;2024-01-07T07:48:36;97973.78;;;0.48;100.00
20987;BME280;10652;50.306;8.570;2024-01-07T07:52:38;97977.25;;;0.41;100.00
20987;BME280;10652;50.306;8.570;2024-01-07T07:56:41;97972.16;;;0.34;100.00
20987;BME280;10652;50.306;8.570;2024-01-07T08:00:43;97968.75;;;0.29;100.00
20987;BME280;10652;50.306;8.570;2024-01-07T08:04:45;97980.88;;;0.22;100.00
20987;BME280;10652;50.306;8.570;2024-01-07T08:08:47;97976.53;;;0.24;100.00
20987;BME280;10652;50.306;8.570;2024-01-07T08:12:49;97987.75;;;0.20;100.00
20987;BME280;10652;50.306;8.570;2024-01-07T08:16:51;97984.31;;;0.21;100.00
20987;BME280;10652;50.306;8.570;2024-01-07T08:20:54;97995.50;;;0.20;100.00
20987;BME280;10652;50.306;8.570;2024-01-07T08:24:56;97995.53;;;0.17;100.00
20987;BME280;10652;50.306;8.570;2024-01-07T08:28:58;98001.44;;;0.33;100.00
20987;BME280;10652;50.306;8.570;2024-01-07T08:33:00;98004.91;;;0.29;100.00
20987;BME280;10652;50.306;8.570;2024-01-07T08:37:03;98014.34;;;0.34;100.00
20987;BME280;10652;50.306;8.570;2024-01-07T08:41:05;98010.91;;;0.35;100.00
20987;BME280;10652;50.306;8.570;2024-01-07T08:45:07;98018.69;;;0.31;100.00
20987;BME280;10652;50.306;8.570;2024-01-07T08:49:10;98021.25;;;0.35;100.00
20987;BME280;10652;50.306;8.570;2024-01-07T08:53:12;98029.91;;;0.28;100.00
20987;BME280;10652;50.306;8.570;2024-01-07T08:57:14;98037.72;;;0.16;100.00
20987;BME280;10652;50.306;8.570;2024-01-07T09:01:16;98040.28;;;0.19;100.00
20987;BME280;10652;50.306;8.570;2024-01-07T09:05:18;98043.75;;;0.15;100.00
20987;BME280;10652;50.306;8.570;2024-01-07T09:09:20;98049.84;;;0.05;100.00
20987;BME280;10652;50.306;8.570;2024-01-07T09:13:22;98055.03;;;0.00;100.00
20987;BME280;10652;50.306;8.570;2024-01-07T09:17:24;98067.94;;;0.02;100.00
20987;BME280;10652;50.306;8.570;2024-01-07T09:21:27;98079.81;;;0.36;100.00
20987;BME280;10652;50.306;8.570;2024-01-07T09:25:29;98082.44;;;0.24;100.00
20987;BME280;10652;50.306;8.570;2024-01-07T09:29:31;98079.91;;;0.15;100.00
20987;BME280;10652;50.306;8.570;2024-01-07T09:33:34;98080.78;;;0.15;100.00
20987;BME280;10652;50.306;8.570;2024-01-07T09:37:36;98091.09;;;0.20;100.00
20987;BME280;10652;50.306;8.570;2024-01-07T09:41:38;98100.53;;;0.27;100.00
20987;BME280;10652;50.306;8.570;2024-01-07T09:45:42;98107.41;;;0.25;100.00
20987;BME280;10652;50.306;8.570;2024-01-07T09:49:47;98102.28;;;0.19;100.00
20987;BME280;10652;50.306;8.570;2024-01-07T09:53:53;98100.56;;;0.15;100.00
20987;BME280;10652;50.306;8.570;2024-01-07T09:57:58;98115.22;;;0.17;100.00
20987;BME280;10652;50.306;8.570;2024-01-07T10:02:01;98102.31;;;0.17;100.00
20987;BME280;10652;50.306;8.570;2024-01-07T10:06:04;98109.19;;;0.14;100.00
20987;BME280;10652;50.306;8.570;2024-01-07T10:10:16;98109.19;;;0.17;100.00
20987;BME280;10652;50.306;8.570;2024-01-07T10:14:19;98110.91;;;0.15;99.45
20987;BME280;10652;50.306;8.570;2024-01-07T10:18:25;98114.38;;;0.12;100.00
20987;BME280;10652;50.306;8.570;2024-01-07T10:22:27;98116.06;;;0.18;100.00
20987;BME280;10652;50.306;8.570;2024-01-07T10:26:29;98123.84;;;0.13;100.00
20987;BME280;10652;50.306;8.570;2024-01-07T10:30:32;98119.53;;;0.11;100.00
20987;BME280;10652;50.306;8.570;2024-01-07T10:34:35;98119.53;;;0.17;100.00
20987;BME280;10652;50.306;8.570;2024-01-07T10:38:38;98136.81;;;-0.06;97.43
20987;BME280;10652;50.306;8.570;2024-01-07T10:42:45;98134.28;;;-0.20;98.43
20987;BME280;10652;50.306;8.570;2024-01-07T10:46:48;98137.69;;;-0.12;100.00
20987;BME280;10652;50.306;8.570;2024-01-07T10:50:53;98140.25;;;-0.04;99.58
20987;BME280;10652;50.306;8.570;2024-01-07T10:55:02;98135.97;;;-0.05;96.94
20987;BME280;10652;50.306;8.570;2024-01-07T10:59:05;98144.56;;;-0.02;97.58
20987;BME280;10652;50.306;8.570;2024-01-07T11:03:13;98141.97;;;-0.03;97.37
20987;BME280;10652;50.306;8.570;2024-01-07T11:07:24;98150.56;;;-0.04;94.63
20987;BME280;10652;50.306;8.570;2024-01-07T11:11:41;98152.38;;;-0.18;94.35
20987;BME280;10652;50.306;8.570;2024-01-07T11:19:54;98136.94;;;-0.37;92.60
20987;BME280;10652;50.306;8.570;2024-01-07T11:23:59;98153.28;;;-0.48;93.61
20987;BME280;10652;50.306;8.570;2024-01-07T11:28:02;98144.72;;;-0.55;94.44
20987;BME280;10652;50.306;8.570;2024-01-07T11:32:05;98149.00;;;-0.51;95.64
20987;BME280;10652;50.306;8.570;2024-01-07T11:36:07;98147.28;;;-0.52;95.58
20987;BME280;10652;50.306;8.570;2024-01-07T11:40:10;98158.44;;;-0.59;96.50
20987;BME280;10652;50.306;8.570;2024-01-07T11:44:13;98160.19;;;-0.67;97.62
20987;BME280;10652;50.306;8.570;2024-01-07T11:48:16;98153.31;;;-0.74;99.26
20987;BME280;10652;50.306;8.570;2024-01-07T11:52:19;98155.03;;;-0.79;100.00
20987;BME280;10652;50.306;8.570;2024-01-07T11:56:22;98160.19;;;-0.79;100.00
20987;BME280;10652;50.306;8.570;2024-01-07T12:00:24;98152.44;;;-0.61;100.00
20987;BME280;10652;50.306;8.570;2024-01-07T12:04:28;98153.28;;;-0.51;100.00
20987;BME280;10652;50.306;8.570;2024-01-07T12:08:30;98160.19;;;-0.50;100.00
20987;BME280;10652;50.306;8.570;2024-01-07T12:12:32;98166.19;;;-0.68;100.00
20987;BME280;10652;50.306;8.570;2024-01-07T12:16:35;98167.94;;;-0.70;100.00
20987;BME280;10652;50.306;8.570;2024-01-07T12:20:37;98175.69;;;-0.82;99.92
20987;BME280;10652;50.306;8.570;2024-01-07T12:24:39;98186.84;;;-0.89;100.00
20987;BME280;10652;50.306;8.570;2024-01-07T12:28:41;98186.00;;;-0.91;99.74
20987;BME280;10652;50.306;8.570;2024-01-07T12:32:43;98183.41;;;-0.97;98.35
20987;BME280;10652;50.306;8.570;2024-01-07T12:36:46;98193.72;;;-0.97;98.32
20987;BME280;10652;50.306;8.570;2024-01-07T12:40:49;98186.81;;;-0.86;97.92
20987;BME280;10652;50.306;8.570;2024-01-07T12:44:51;98198.03;;;-0.92;97.27
20987;BME280;10652;50.306;8.570;2024-01-07T12:48:53;98199.72;;;-1.01;95.68
20987;BME280;10652;50.306;8.570;2024-01-07T12:52:56;98197.09;;;-1.18;94.96
20987;BME280;10652;50.306;8.570;2024-01-07T12:56:58;98216.00;;;-1.18;95.95
20987;BME280;10652;50.306;8.570;2024-01-07T13:01:00;98203.97;;;-1.22;96.77
20987;BME280;10652;50.306;8.570;2024-01-07T13:05:02;98213.41;;;-1.27;96.62
20987;BME280;10652;50.306;8.570;2024-01-07T13:09:05;98217.69;;;-1.35;96.92
20987;BME280;10652;50.306;8.570;2024-01-07T13:13:08;98220.25;;;-1.39;96.97
20987;BME280;10652;50.306;8.570;2024-01-07T13:17:17;98229.69;;;-1.43;97.25
20987;BME280;10652;50.306;8.570;2024-01-07T13:21:19;98239.13;;;-1.43;98.14
20987;BME280;10652;50.306;8.570;2024-01-07T13:25:22;98235.69;;;-1.45;97.28
20987;BME280;10652;50.306;8.570;2024-01-07T13:29:24;98251.94;;;-1.63;95.05
20987;BME280;10652;50.306;8.570;2024-01-07T13:33:26;98246.78;;;-1.69;94.47
20987;BME280;10652;50.306;8.570;2024-01-07T13:37:29;98235.56;;;-1.73;93.49
20987;BME280;10652;50.306;8.570;2024-01-07T13:41:33;98239.91;;;-1.73;94.75
20987;BME280;10652;50.306;8.570;2024-01-07T13:45:35;98245.84;;;-1.80;93.51
20987;BME280;10652;50.306;8.570;2024-01-07T13:49:37;98260.44;;;-1.82;92.88
20987;BME280;10652;50.306;8.570;2024-01-07T13:53:40;98249.25;;;-1.87;91.95
20987;BME280;10652;50.306;8.570;2024-01-07T13:57:42;98267.22;;;-1.96;90.30
20987;BME280;10652;50.306;8.570;2024-01-07T14:01:44;98270.59;;;-2.04;88.91
20987;BME280;10652;50.306;8.570;2024-01-07T14:05:46;98263.75;;;-2.05;89.42
20987;BME280;10652;50.306;8.570;2024-01-07T14:09:48;98274.06;;;-2.02;88.52
20987;BME280;10652;50.306;8.570;2024-01-07T14:13:51;98290.19;;;-2.22;87.00
20987;BME280;10652;50.306;8.570;2024-01-07T14:17:53;98288.47;;;-2.28;87.74
20987;BME280;10652;50.306;8.570;2024-01-07T14:21:55;98301.31;;;-2.28;86.88
20987;BME280;10652;50.306;8.570;2024-01-07T14:25:58;98309.00;;;-2.31;85.56
20987;BME280;10652;50.306;8.570;2024-01-07T14:30:00;98309.88;;;-2.29;85.37
20987;BME280;10652;50.306;8.570;2024-01-07T14:34:02;98321.84;;;-2.37;83.62
20987;BME280;10652;50.306;8.570;2024-01-07T14:38:04;98320.06;;;-2.39;82.85
20987;BME280;10652;50.306;8.570;2024-01-07T14:42:09;98315.75;;;-2.43;83.74
20987;BME280;10652;50.306;8.570;2024-01-07T14:46:12;98328.59;;;-2.45;82.22
20987;BME280;10652;50.306;8.570;2024-01-07T14:50:14;98334.56;;;-2.51;81.64
20987;BME280;10652;50.306;8.570;2024-01-07T14:54:16;98331.91;;;-2.58;80.80
20987;BME280;10652;50.306;8.570;2024-01-07T14:58:18;98335.38;;;-2.53;82.49
20987;BME280;10652;50.306;8.570;2024-01-07T15:02:20;98352.56;;;-2.52;81.67
20987;BME280;10652;50.306;8.570;2024-01-07T15:06:23;98354.28;;;-2.51;81.81
20987;BME280;10652;50.306;8.570;2024-01-07T15:10:25;98355.88;;;-2.62;79.34
20987;BME280;10652;50.306;8.570;2024-01-07T15:14:27;98371.19;;;-2.74;77.61
20987;BME280;10652;50.306;8.570;2024-01-07T15:18:30;98382.22;;;-2.84;77.51
20987;BME280;10652;50.306;8.570;2024-01-07T15:22:34;98385.66;;;-2.82;79.12
20987;BME280;10652;50.306;8.570;2024-01-07T15:26:36;98399.31;;;-2.88;75.41
20987;BME280;10652;50.306;8.570;2024-01-07T15:30:39;98408.50;;;-3.07;74.75
20987;BME280;10652;50.306;8.570;2024-01-07T15:34:41;98414.38;;;-3.15;74.18
20987;BME280;10652;50.306;8.570;2024-01-07T15:38:44;98421.19;;;-3.19;74.40
20987;BME280;10652;50.306;8.570;2024-01-07T15:42:46;98420.41;;;-3.15;75.04
20987;BME280;10652;50.306;8.570;2024-01-07T15:46:48;98428.09;;;-3.15;74.45
20987;BME280;10652;50.306;8.570;2024-01-07T15:50:50;98422.97;;;-3.13;75.24
20987;BME280;10652;50.306;8.570;2024-01-07T15:54:52;98432.34;;;-3.17;73.82
20987;BME280;10652;50.306;8.570;2024-01-07T15:58:55;98454.53;;;-3.22;73.28
20987;BME280;10652;50.306;8.570;2024-01-07T16:02:57;98438.13;;;-3.33;73.21
20987;BME280;10652;50.306;8.570;2024-01-07T16:07:00;98457.78;;;-3.35;72.43
20987;BME280;10652;50.306;8.570;2024-01-07T16:11:02;98463.56;;;-3.48;72.64
20987;BME280;10652;50.306;8.570;2024-01-07T16:15:06;98469.50;;;-3.52;72.58
20987;BME280;10652;50.306;8.570;2024-01-07T16:19:08;98473.81;;;-3.51;73.36
20987;BME280;10652;50.306;8.570;2024-01-07T16:23:14;98486.66;;;-3.51;72.98
20987;BME280;10652;50.306;8.570;2024-01-07T16:27:16;98489.06;;;-3.59;72.26
20987;BME280;10652;50.306;8.570;2024-01-07T16:31:19;98495.00;;;-3.64;72.00
20987;BME280;10652;50.306;8.570;2024-01-07T16:35:22;98488.09;;;-3.68;71.99
20987;BME280;10652;50.306;8.570;2024-01-07T16:39:24;98494.94;;;-3.69;72.42
20987;BME280;10652;50.306;8.570;2024-01-07T16:43:26;98494.78;;;-3.78;70.72
20987;BME280;10652;50.306;8.570;2024-01-07T16:47:31;98498.25;;;-3.74;70.97
20987;BME280;10652;50.306;8.570;2024-01-07T16:51:34;98510.34;;;-3.69;70.27
20987;BME280;10652;50.306;8.570;2024-01-07T16:55:36;98511.91;;;-3.75;68.61
20987;BME280;10652;50.306;8.570;2024-01-07T16:59:38;98512.88;;;-3.70;68.71
20987;BME280;10652;50.306;8.570;2024-01-07T17:03:42;98520.44;;;-3.76;69.24
20987;BME280;10652;50.306;8.570;2024-01-07T17:07:44;98516.16;;;-3.79;69.68
20987;BME280;10652;50.306;8.570;2024-01-07T17:11:46;98518.63;;;-3.84;67.62
20987;BME280;10652;50.306;8.570;2024-01-07T17:15:48;98547.53;;;-3.94;66.17
20987;BME280;10652;50.306;8.570;2024-01-07T17:19:50;98520.13;;;-3.95;67.92
20987;BME280;10652;50.306;8.570;2024-01-07T17:23:53;98560.41;;;-3.91;66.75
20987;BME280;10652;50.306;8.570;2024-01-07T17:27:55;98532.09;;;-3.97;66.51
20987;BME280;10652;50.306;8.570;2024-01-07T17:31:58;98540.63;;;-3.98;66.48
20987;BME280;10652;50.306;8.570;2024-01-07T17:36:00;98547.56;;;-3.92;67.99
20987;BME280;10652;50.306;8.570;2024-01-07T17:40:03;98534.00;;;-3.87;68.64
20987;BME280;10652;50.306;8.570;2024-01-07T17:44:05;98550.25;;;-3.85;67.94
20987;BME280;10652;50.306;8.570;2024-01-07T17:48:08;98550.38;;;-3.78;67.75
20987;BME280;10652;50.306;8.570;2024-01-07T17:52:10;98554.59;;;-3.81;66.83
20987;BME280;10652;50.306;8.570;2024-01-07T17:56:22;98558.03;;;-3.80;67.87
20987;BME280;10652;50.306;8.570;2024-01-07T18:00:24;98557.25;;;-3.76;68.08
20987;BME280;10652;50.306;8.570;2024-01-07T18:04:26;98558.06;;;-3.78;66.15
20987;BME280;10652;50.306;8.570;2024-01-07T18:08:29;98561.50;;;-3.76;66.81
20987;BME280;10652;50.306;8.570;2024-01-07T18:12:43;98559.03;;;-3.73;66.74
20987;BME280;10652;50.306;8.570;2024-01-07T18:16:45;98562.59;;;-3.65;65.53
20987;BME280;10652;50.306;8.570;2024-01-07T18:20:48;98568.50;;;-3.68;65.26
20987;BME280;10652;50.306;8.570;2024-01-07T18:24:50;98568.53;;;-3.66;65.89
20987;BME280;10652;50.306;8.570;2024-01-07T18:28:52;98575.41;;;-3.65;66.65
20987;BME280;10652;50.306;8.570;2024-01-07T18:32:54;98582.22;;;-3.67;66.25
20987;BME280;10652;50.306;8.570;2024-01-07T18:36:56;98569.47;;;-3.63;67.00
20987;BME280;10652;50.306;8.570;2024-01-07T18:40:58;98578.84;;;-3.63;67.11
20987;BME280;10652;50.306;8.570;2024-01-07T18:45:01;98588.34;;;-3.61;68.05
20987;BME280;10652;50.306;8.570;2024-01-07T18:49:04;98587.75;;;-3.46;73.75
20987;BME280;10652;50.306;8.570;2024-01-07T18:53:07;98584.25;;;-3.48;68.53
20987;BME280;10652;50.306;8.570;2024-01-07T18:57:09;98589.34;;;-3.51;69.56
20987;BME280;10652;50.306;8.570;2024-01-07T19:01:11;98591.13;;;-3.47;69.16
20987;BME280;10652;50.306;8.570;2024-01-07T19:05:13;98586.91;;;-3.44;69.07
20987;BME280;10652;50.306;8.570;2024-01-07T19:09:15;98590.31;;;-3.46;69.19
20987;BME280;10652;50.306;8.570;2024-01-07T19:13:19;98618.44;;;-3.52;68.12
20987;BME280;10652;50.306;8.570;2024-01-07T19:17:21;98601.41;;;-3.47;69.02
20987;BME280;10652;50.306;8.570;2024-01-07T19:21:24;98600.69;;;-3.39;68.62
20987;BME280;10652;50.306;8.570;2024-01-07T19:25:28;98611.81;;;-3.40;67.47
20987;BME280;10652;50.306;8.570;2024-01-07T19:29:30;98609.31;;;-3.35;68.37
20987;BME280;10652;50.306;8.570;2024-01-07T19:33:32;98620.56;;;-3.28;67.53
20987;BME280;10652;50.306;8.570;2024-01-07T19:37:36;98620.59;;;-3.25;67.47
20987;BME280;10652;50.306;8.570;2024-01-07T19:41:38;98617.13;;;-3.29;66.32
20987;BME280;10652;50.306;8.570;2024-01-07T19:45:40;98622.38;;;-3.23;65.78
20987;BME280;10652;50.306;8.570;2024-01-07T19:49:43;98623.13;;;-3.28;65.01
20987;BME280;10652;50.306;8.570;2024-01-07T19:53:49;98631.56;;;-3.36;65.06
20987;BME280;10652;50.306;8.570;2024-01-07T19:57:53;98619.59;;;-3.35;65.98
20987;BME280;10652;50.306;8.570;2024-01-07T20:01:55;98622.25;;;-3.29;65.57
20987;BME280;10652;50.306;8.570;2024-01-07T20:06:00;98623.13;;;-3.28;66.14
20987;BME280;10652;50.306;8.570;2024-01-07T20:10:02;98631.75;;;-3.25;66.36
20987;BME280;10652;50.306;8.570;2024-01-07T20:14:06;98618.94;;;-3.22;67.35
20987;BME280;10652;50.306;8.570;2024-01-07T20:18:10;98627.50;;;-3.23;66.76
20987;BME280;10652;50.306;8.570;2024-01-07T20:22:13;98636.81;;;-3.29;66.67
20987;BME280;10652;50.306;8.570;2024-01-07T20:26:16;98633.34;;;-3.31;67.19
20987;BME280;10652;50.306;8.570;2024-01-07T20:30:19;98649.63;;;-3.31;67.15
20987;BME280;10652;50.306;8.570;2024-01-07T20:34:21;98629.84;;;-3.35;67.86
20987;BME280;10652;50.306;8.570;2024-01-07T20:38:24;98646.97;;;-3.36;67.65
20987;BME280;10652;50.306;8.570;2024-01-07T20:42:28;98644.47;;;-3.31;68.22
20987;BME280;10652;50.306;8.570;2024-01-07T20:46:42;98642.69;;;-3.35;69.07
20987;BME280;10652;50.306;8.570;2024-01-07T20:50:44;98647.75;;;-3.41;69.27
20987;BME280;10652;50.306;8.570;2024-01-07T20:54:46;98649.47;;;-3.40;69.54
20987;BME280;10652;50.306;8.570;2024-01-07T20:58:49;98642.63;;;-3.40;70.05
20987;BME280;10652;50.306;8.570;2024-01-07T21:02:51;98638.34;;;-3.39;70.56
20987;BME280;10652;50.306;8.570;2024-01-07T21:06:53;98645.28;;;-3.35;70.83
20987;BME280;10652;50.306;8.570;2024-01-07T21:10:56;98644.44;;;-3.34;71.23
20987;BME280;10652;50.306;8.570;2024-01-07T21:14:59;98655.53;;;-3.35;70.86
20987;BME280;10652;50.306;8.570;2024-01-07T21:19:01;98650.44;;;-3.33;70.83
20987;BME280;10652;50.306;8.570;2024-01-07T21:23:04;98648.72;;;-3.35;69.50
20987;BME280;10652;50.306;8.570;2024-01-07T21:27:06;98647.84;;;-3.35;70.22
20987;BME280;10652;50.306;8.570;2024-01-07T21:31:08;98657.41;;;-3.28;70.12